createdAt,value
2023-01-18T00:02:56.256Z,73.40
2023-01-18T00:05:23.361Z,72.90
2023-01-18T00:07:50.867Z,72.77
2023-01-18T00:10:18.008Z,72.49
2023-01-18T00:12:45.269Z,72.07
2023-01-18T00:15:12.130Z,71.80
2023-01-18T00:17:47.920Z,71.50
2023-01-18T00:20:15.328Z,71.22
2023-01-18T00:22:42.786Z,71.07
2023-01-18T00:25:11.899Z,71.19
2023-01-18T00:27:38.912Z,71.12
2023-01-18T00:30:06.781Z,70.99
2023-01-18T00:32:34.053Z,70.93
2023-01-18T00:35:03.334Z,71.10
2023-01-18T00:37:32.465Z,71.30
2023-01-18T00:39:59.479Z,71.81
2023-01-18T00:42:45.161Z,72.15
2023-01-18T00:45:12.130Z,71.87
2023-01-18T00:47:39.051Z,71.85
2023-01-18T00:50:06.609Z,71.99
2023-01-18T00:52:35.003Z,71.91
2023-01-18T00:55:04.003Z,71.75
2023-01-18T00:57:31.141Z,71.83
2023-01-18T00:59:58.282Z,71.98
2023-01-18T01:02:25.272Z,72.11
2023-01-18T01:05:11.050Z,72.24
2023-01-18T01:07:37.999Z,72.21
2023-01-18T01:10:09.411Z,72.32
2023-01-18T01:12:55.820Z,72.40
2023-01-18T01:15:41.701Z,72.36
2023-01-18T01:18:28.005Z,72.38
2023-01-18T01:21:13.786Z,72.59
2023-01-18T01:23:59.480Z,72.74
2023-01-18T01:26:26.417Z,72.95
2023-01-18T01:28:53.390Z,72.99
2023-01-18T01:31:20.639Z,72.97
2023-01-18T01:33:50.534Z,73.00
2023-01-18T01:36:21.715Z,72.92
2023-01-18T01:38:48.623Z,72.73
2023-01-18T01:41:26.794Z,72.74
2023-01-18T01:43:54.391Z,72.92
2023-01-18T01:46:49.594Z,73.01
2023-01-18T01:49:19.995Z,73.03
2023-01-18T01:51:58.730Z,73.10
2023-01-18T01:54:30.200Z,72.94
2023-01-18T01:57:20.897Z,72.67
2023-01-18T02:00:00.657Z,72.72
2023-01-18T02:16:43.716Z,72.46
2023-01-18T02:19:29.703Z,71.29
2023-01-18T02:22:00.909Z,71.08
2023-01-18T02:24:48.746Z,71.10
2023-01-18T02:27:22.608Z,71.12
2023-01-18T02:29:49.623Z,71.34
2023-01-18T02:32:28.663Z,71.44
2023-01-18T02:35:06.635Z,71.55
2023-01-18T02:37:42.859Z,71.72
2023-01-18T02:40:19.617Z,71.77
2023-01-18T02:43:05.408Z,71.68
2023-01-18T02:46:09.269Z,71.84
2023-01-18T02:48:38.002Z,72.12
2023-01-18T02:51:05.610Z,72.36
2023-01-18T02:53:33.725Z,72.59
2023-01-18T02:56:06.993Z,72.71
2023-01-18T02:58:35.576Z,72.78
2023-01-18T03:01:08.582Z,72.75
2023-01-18T03:03:35.713Z,72.79
2023-01-18T03:06:03.314Z,72.88
2023-01-18T03:08:36.429Z,73.08
2023-01-18T03:11:06.679Z,73.17
2023-01-18T03:14:03.422Z,73.17
2023-01-18T03:16:58.128Z,73.03
2023-01-18T03:19:52.524Z,72.95
2023-01-18T03:22:19.566Z,73.15
2023-01-18T03:24:46.581Z,73.19
2023-01-18T03:27:32.173Z,73.37
2023-01-18T03:30:17.902Z,73.45
2023-01-18T03:33:03.848Z,73.46
2023-01-18T03:35:30.783Z,73.37
2023-01-18T03:37:57.670Z,73.44
2023-01-18T03:40:27.509Z,73.29
2023-01-18T03:43:00.766Z,73.34
2023-01-18T03:45:29.523Z,73.64
2023-01-18T03:47:56.383Z,73.78
2023-01-18T03:50:26.498Z,74.00
2023-01-18T03:52:56.396Z,73.96
2023-01-18T03:55:26.667Z,74.08
2023-01-18T03:57:59.930Z,74.10
2023-01-18T04:00:27.028Z,73.97
2023-01-18T04:02:53.957Z,74.07
2023-01-18T04:05:21.060Z,74.21
2023-01-18T04:07:48.047Z,74.28
2023-01-18T04:10:15.165Z,74.10
2023-01-18T04:12:42.215Z,74.04
2023-01-18T04:15:10.197Z,73.89
2023-01-18T04:17:37.183Z,73.96
2023-01-18T04:20:04.602Z,74.05
2023-01-18T04:22:31.570Z,74.20
2023-01-18T04:24:58.555Z,74.19
2023-01-18T04:27:25.486Z,73.90
2023-01-18T04:29:52.591Z,73.73
2023-01-18T04:32:19.603Z,73.58
2023-01-18T04:34:46.631Z,73.52
2023-01-18T04:37:13.617Z,73.68
2023-01-18T04:39:40.774Z,73.70
2023-01-18T04:42:07.952Z,73.67
2023-01-18T04:44:34.984Z,73.71
2023-01-18T04:47:02.054Z,73.62
2023-01-18T04:49:29.029Z,73.59
2023-01-18T04:51:56.008Z,73.76
2023-01-18T04:54:22.997Z,73.84
2023-01-18T04:56:50.142Z,73.77
2023-01-18T04:59:17.220Z,73.71
2023-01-18T05:01:44.791Z,73.57
2023-01-18T05:21:54.323Z,71.54
2023-01-18T05:24:21.579Z,71.52
2023-01-18T05:26:49.032Z,71.57
2023-01-18T05:29:17.365Z,71.73
2023-01-18T05:31:44.371Z,71.79
2023-01-18T05:34:11.213Z,71.95
2023-01-18T05:36:38.143Z,72.06
2023-01-18T05:39:05.426Z,72.31
2023-01-18T05:41:32.380Z,72.63
2023-01-18T05:43:59.481Z,72.64
2023-01-18T05:46:26.453Z,72.59
2023-01-18T05:48:59.366Z,72.83
2023-01-18T05:51:26.353Z,73.08
2023-01-18T06:07:15.169Z,73.13
2023-01-18T06:09:43.033Z,71.70
2023-01-18T06:12:10.353Z,71.44
2023-01-18T06:14:37.388Z,71.50
2023-01-18T06:17:05.667Z,71.95
2023-01-18T06:19:32.629Z,72.18
2023-01-18T06:22:00.116Z,72.32
2023-01-18T06:24:27.187Z,72.44
2023-01-18T06:26:54.125Z,72.55
2023-01-18T06:29:21.062Z,72.87
2023-01-18T06:31:48.211Z,73.00
2023-01-18T06:34:15.400Z,73.27
2023-01-18T06:36:42.298Z,73.37
2023-01-18T06:39:09.298Z,73.44
2023-01-18T06:41:36.220Z,73.73
2023-01-18T06:44:03.850Z,73.66
2023-01-18T06:46:31.014Z,73.75
2023-01-18T06:48:57.936Z,73.81
2023-01-18T06:51:24.951Z,74.07
2023-01-18T06:53:51.902Z,74.22
2023-01-18T06:56:18.786Z,74.40
2023-01-18T06:58:45.898Z,74.42
2023-01-18T07:01:12.932Z,74.43
2023-01-18T07:03:40.214Z,74.65
2023-01-18T07:06:07.817Z,74.83
2023-01-18T07:08:35.880Z,74.91
2023-01-18T07:11:07.239Z,75.14
2023-01-18T07:13:35.284Z,75.22
2023-01-18T07:16:02.289Z,75.33
2023-01-18T07:18:29.913Z,75.27
2023-01-18T07:21:04.326Z,75.15
2023-01-18T07:23:31.283Z,75.05
2023-01-18T07:26:17.782Z,75.06
2023-01-18T07:28:45.058Z,75.21
2023-01-18T07:31:12.035Z,75.47
2023-01-18T07:33:39.244Z,75.53
2023-01-18T07:36:06.750Z,75.64
2023-01-18T07:38:34.004Z,75.50
2023-01-18T07:41:08.660Z,75.48
2023-01-18T07:43:37.667Z,75.53
2023-01-18T07:46:05.373Z,75.62
2023-01-18T07:48:32.454Z,75.88
2023-01-18T07:51:04.098Z,76.08
2023-01-18T07:53:33.246Z,76.19
2023-01-18T07:56:01.278Z,76.11
2023-01-18T07:58:28.547Z,76.01
2023-01-18T08:00:55.560Z,76.05
2023-01-18T08:03:22.529Z,76.24
2023-01-18T08:05:49.585Z,76.19
2023-01-18T08:08:17.091Z,76.01
2023-01-18T08:10:44.469Z,75.89
2023-01-18T08:13:11.752Z,75.91
2023-01-18T08:15:39.293Z,75.85
2023-01-18T08:18:06.654Z,75.77
2023-01-18T08:20:33.783Z,75.75
2023-01-18T08:23:01.582Z,75.61
2023-01-18T08:25:29.991Z,75.53
2023-01-18T08:27:59.365Z,75.50
2023-01-18T08:30:28.384Z,75.64
2023-01-18T08:32:58.892Z,75.67
2023-01-18T08:35:27.717Z,75.77
2023-01-18T08:37:54.658Z,75.65
2023-01-18T08:40:22.707Z,75.43
2023-01-18T08:42:49.842Z,75.46
2023-01-18T08:45:17.735Z,75.44
2023-01-18T08:47:44.930Z,75.73
2023-01-18T08:50:11.819Z,75.75
2023-01-18T08:52:39.119Z,75.66
2023-01-18T08:55:06.819Z,75.41
2023-01-18T08:57:33.929Z,75.37
2023-01-18T09:00:01.124Z,75.37
2023-01-18T09:02:28.071Z,75.26
2023-01-18T09:04:55.671Z,75.07
2023-01-18T09:07:22.765Z,75.01
2023-01-18T09:09:49.818Z,75.00
2023-01-18T09:12:16.716Z,74.98
2023-01-18T09:14:43.569Z,75.07
2023-01-18T09:17:10.765Z,75.02
2023-01-18T09:19:37.845Z,75.08
2023-01-18T09:22:06.445Z,74.98
2023-01-18T09:24:33.527Z,74.94
2023-01-18T09:27:00.526Z,74.82
2023-01-18T09:29:27.500Z,74.82
2023-01-18T09:31:56.171Z,74.88
2023-01-18T09:34:23.295Z,74.92
2023-01-18T09:36:51.583Z,74.62
2023-01-18T09:39:19.969Z,74.52
2023-01-18T09:55:18.937Z,73.98
2023-01-18T09:58:01.706Z,72.17
2023-01-18T10:00:31.144Z,72.02
2023-01-18T10:03:01.272Z,71.91
2023-01-18T10:05:31.200Z,71.86
2023-01-18T10:08:04.108Z,72.05
2023-01-18T10:10:39.504Z,72.08
2023-01-18T10:13:14.790Z,72.10
2023-01-18T10:15:41.735Z,72.18
2023-01-18T10:18:08.749Z,72.23
2023-01-18T10:20:46.102Z,72.11
2023-01-18T10:23:17.636Z,72.06
2023-01-18T10:25:53.473Z,72.11
2023-01-18T10:28:29.522Z,72.32
2023-01-18T10:31:35.929Z,72.41
2023-01-18T10:34:04.563Z,72.41
2023-01-18T10:36:41.979Z,72.28
2023-01-18T10:39:23.030Z,72.23
2023-01-18T10:41:50.438Z,72.09
2023-01-18T10:44:17.855Z,72.00
2023-01-18T10:46:45.415Z,72.02
2023-01-18T10:49:33.727Z,72.03
2023-01-18T10:52:29.694Z,71.99
2023-01-18T10:55:01.901Z,71.88
2023-01-18T10:57:31.057Z,71.71
2023-01-18T10:59:58.596Z,71.65
2023-01-18T11:17:12.299Z,70.91
2023-01-18T11:19:39.472Z,69.36
2023-01-18T11:22:13.348Z,69.08
2023-01-18T11:24:40.298Z,69.11
2023-01-18T11:27:25.379Z,68.83
2023-01-18T11:29:52.270Z,68.84
2023-01-18T11:32:26.431Z,68.89
2023-01-18T11:34:54.912Z,68.99
2023-01-18T11:37:36.059Z,69.24
2023-01-18T11:40:21.210Z,69.32
2023-01-18T11:42:51.501Z,69.43
2023-01-18T11:46:05.582Z,69.47
2023-01-18T11:48:41.386Z,69.54
2023-01-18T11:51:36.698Z,69.67
2023-01-18T11:54:16.558Z,69.77
2023-01-18T12:27:39.884Z,67.69
2023-01-18T12:30:22.186Z,67.78
2023-01-18T12:33:17.226Z,67.90
2023-01-18T12:36:06.859Z,67.91
2023-01-18T12:38:34.185Z,67.98
2023-01-18T12:41:11.320Z,68.16
2023-01-18T12:43:41.184Z,68.21
2023-01-18T12:46:33.241Z,68.32
2023-01-18T12:49:03.217Z,68.55
2023-01-18T12:51:33.612Z,68.53
2023-01-18T12:54:03.166Z,68.68
2023-01-18T12:56:41.673Z,68.79
2023-01-18T12:59:15.500Z,68.85
2023-01-18T13:01:45.738Z,68.93
2023-01-18T13:04:19.984Z,68.98
2023-01-18T13:06:49.059Z,68.88
2023-01-18T13:09:18.433Z,68.91
2023-01-18T13:11:45.170Z,69.05
2023-01-18T13:14:27.641Z,69.13
2023-01-18T13:17:03.656Z,69.18
2023-01-18T13:19:43.120Z,69.14
2023-01-18T13:22:23.777Z,69.11
2023-01-18T13:25:18.954Z,69.01
2023-01-18T13:28:02.930Z,68.96
2023-01-18T13:30:49.288Z,68.91
2023-01-18T13:33:21.590Z,69.02
2023-01-18T13:35:50.787Z,69.07
2023-01-18T13:38:18.969Z,68.94
2023-01-18T13:40:55.816Z,69.02
2023-01-18T13:43:37.035Z,68.99
2023-01-18T13:46:20.327Z,68.98
2023-01-18T13:49:01.713Z,68.97
2023-01-18T13:51:40.986Z,69.01
2023-01-18T13:57:21.864Z,69.65
2023-01-18T13:59:50.139Z,69.02
2023-01-18T14:02:41.564Z,69.07
2023-01-18T14:05:19.673Z,69.14
2023-01-18T14:07:48.865Z,69.15
2023-01-18T14:10:40.295Z,69.21
2023-01-18T14:13:08.157Z,69.10
2023-01-18T14:15:41.654Z,69.26
2023-01-18T14:18:32.655Z,69.05
2023-01-18T14:21:21.616Z,69.11
2023-01-18T14:24:28.159Z,69.15
2023-01-18T14:26:55.248Z,69.42
2023-01-18T14:29:34.273Z,69.49
2023-01-18T14:32:01.186Z,69.62
2023-01-18T14:34:29.490Z,69.46
2023-01-18T14:36:57.058Z,69.56
2023-01-18T14:39:23.994Z,69.58
2023-01-18T14:42:03.950Z,69.36
2023-01-18T14:44:30.827Z,69.45
2023-01-18T14:46:57.807Z,69.48
2023-01-18T14:49:39.787Z,69.44
2023-01-18T14:52:07.793Z,69.28
2023-01-18T14:54:35.667Z,69.33
2023-01-18T14:57:04.559Z,69.51
2023-01-18T14:59:33.046Z,69.58
2023-01-18T15:02:14.161Z,69.65
2023-01-18T15:04:45.067Z,69.60
2023-01-18T15:07:21.831Z,69.50
2023-01-18T15:09:49.435Z,69.46
2023-01-18T15:12:19.144Z,69.49
2023-01-18T15:14:47.952Z,69.56
2023-01-18T15:17:21.382Z,69.62
2023-01-18T15:19:52.424Z,69.57
2023-01-18T15:22:20.296Z,69.61
2023-01-18T15:24:47.343Z,69.41
2023-01-18T15:27:15.818Z,69.48
2023-01-18T15:30:01.654Z,69.44
2023-01-18T15:32:30.020Z,69.56
2023-01-18T15:34:59.290Z,69.48
2023-01-18T15:37:31.971Z,69.50
2023-01-18T15:40:22.570Z,69.45
2023-01-18T15:43:00.479Z,69.33
2023-01-18T15:45:33.000Z,69.53
2023-01-18T15:48:05.469Z,69.51
2023-01-18T15:50:37.077Z,69.51
2023-01-18T15:53:23.170Z,69.56
2023-01-18T19:55:00.637Z,71.51
2023-01-18T19:57:27.876Z,70.29
2023-01-18T19:59:54.719Z,70.20
2023-01-18T20:02:22.475Z,70.03
2023-01-18T20:04:49.738Z,70.07
2023-01-18T20:07:16.684Z,70.14
2023-01-18T20:09:44.157Z,70.13
2023-01-18T20:25:53.518Z,70.06
2023-01-18T20:28:20.387Z,69.24
2023-01-18T20:30:49.291Z,69.29
2023-01-18T20:33:16.721Z,69.33
2023-01-18T20:35:44.642Z,69.40
2023-01-18T20:38:12.665Z,69.48
2023-01-18T20:40:40.139Z,69.79
2023-01-18T20:43:06.964Z,69.73
2023-01-18T20:45:34.038Z,70.15
2023-01-18T20:48:01.236Z,70.39
2023-01-18T20:50:28.155Z,70.48
2023-01-18T20:52:55.110Z,70.58
2023-01-18T21:00:22.683Z,71.39
2023-01-18T21:02:50.393Z,71.72
2023-01-18T21:05:17.658Z,71.91
2023-01-18T21:07:44.534Z,72.04
2023-01-18T21:10:11.856Z,71.91
2023-01-18T21:12:38.783Z,72.02
2023-01-18T21:15:09.096Z,72.07
2023-01-18T21:17:36.452Z,72.13
2023-01-18T21:20:03.795Z,72.23
2023-01-18T21:22:30.739Z,72.37
2023-01-18T21:24:58.233Z,72.47
2023-01-18T21:27:26.786Z,72.55
2023-01-18T21:29:54.336Z,72.49
2023-01-18T21:32:22.829Z,72.58
2023-01-18T21:34:49.789Z,72.82
2023-01-18T21:37:16.814Z,72.95
2023-01-18T21:39:43.658Z,73.02
2023-01-18T21:42:29.958Z,73.13
2023-01-18T21:45:15.750Z,73.13
2023-01-18T21:47:42.718Z,73.29
2023-01-18T21:50:29.545Z,73.44
2023-01-18T21:53:15.133Z,73.50
2023-01-18T21:56:47.376Z,74.25
2023-01-18T21:59:14.431Z,73.62
2023-01-18T22:01:43.169Z,73.32
2023-01-18T22:04:30.235Z,73.37
2023-01-18T22:06:59.356Z,73.37
2023-01-18T22:09:27.370Z,73.37
2023-01-18T22:11:56.442Z,73.50
2023-01-18T22:14:23.929Z,73.54
2023-01-18T22:16:50.918Z,73.38
2023-01-18T22:19:19.376Z,73.31
2023-01-18T22:21:46.627Z,73.25
2023-01-18T22:24:13.880Z,73.25
2023-01-18T22:26:41.441Z,73.43
2023-01-18T22:29:08.464Z,73.49
2023-01-18T22:31:35.644Z,73.55
2023-01-18T22:34:04.465Z,73.69
2023-01-18T22:36:32.701Z,73.58
2023-01-18T22:38:59.772Z,73.61
2023-01-18T22:41:27.825Z,73.71
2023-01-18T22:43:55.078Z,73.95
2023-01-18T22:46:23.711Z,74.13
2023-01-18T22:48:51.034Z,74.19
2023-01-18T22:51:20.393Z,73.97
2023-01-18T22:53:48.079Z,73.76
2023-01-18T22:56:18.713Z,73.82
2023-01-18T22:58:45.858Z,73.52
2023-01-18T23:01:13.741Z,72.68
2023-01-18T23:03:40.805Z,72.12
2023-01-18T23:06:10.585Z,71.55
2023-01-18T23:08:42.673Z,71.20
2023-01-18T23:11:24.957Z,70.86
2023-01-18T23:14:13.974Z,70.31
2023-01-18T23:16:59.697Z,69.93
2023-01-18T23:19:28.199Z,70.18
2023-01-18T23:21:56.465Z,70.32
2023-01-18T23:24:23.485Z,70.35
2023-01-18T23:26:50.867Z,70.57
2023-01-18T23:29:17.929Z,70.60
2023-01-18T23:31:44.866Z,70.97
2023-01-18T23:34:11.803Z,71.28
2023-01-18T23:36:38.768Z,71.47
2023-01-18T23:39:24.546Z,71.90
2023-01-18T23:42:10.323Z,72.33
2023-01-18T23:44:55.982Z,72.55
2023-01-18T23:47:41.638Z,72.73
2023-01-18T23:50:28.431Z,72.63
2023-01-18T23:53:14.195Z,72.47
